Time;durP1;ratioP1;P1;durP2;ratioP2;P2;SDS_P1;SDS_P2;PMS_P1;PMS_P2;Temp;Humidity;BMP_temperature;BMP_pressure;BME280_temperature;BME280_humidity;BME280_pressure;Samples;Min_cycle;Max_cycle;Signal;HPM_P1;HPM_P2
2023/02/10 00:01:33;;;;;;;4.88;3.70;;;23.00;57.90;;;;;;4132851;28;20112;-45
2023/02/10 00:03:56;;;;;;;4.32;3.65;;;22.90;59.20;;;;;;4138148;28;20387;-44
2023/02/10 00:06:23;;;;;;;5.43;3.50;;;22.90;58.60;;;;;;4140230;28;20063;-46
2023/02/10 00:08:51;;;;;;;5.57;3.72;;;22.80;59.80;;;;;;4141815;28;20497;-43
2023/02/10 00:11:15;;;;;;;4.63;3.85;;;22.70;58.90;;;;;;4140828;28;20040;-44
2023/02/10 00:13:39;;;;;;;6.43;4.07;;;22.60;58.50;;;;;;4139136;28;20204;-43
2023/02/10 00:16:02;;;;;;;;;;;22.60;58.70;;;;;;4136145;28;20461;-42
2023/02/10 00:18:25;;;;;;;4.43;3.92;;;22.50;58.50;;;;;;4139403;28;20285;-45
2023/02/10 00:20:48;;;;;;;4.30;3.90;;;22.50;58.40;;;;;;4137449;28;20038;-48
2023/02/10 00:23:10;;;;;;;4.78;4.28;;;22.40;59.30;;;;;;4139664;28;20127;-42
2023/02/10 00:25:33;;;;;;;5.25;4.53;;;22.40;59.30;;;;;;4137442;28;20520;-44
2023/02/10 00:27:56;;;;;;;4.70;4.30;;;22.30;59.10;;;;;;4134845;28;20041;-45
2023/02/10 00:30:18;;;;;;;6.05;4.25;;;22.30;59.30;;;;;;4141131;28;20033;-43
2023/02/10 00:32:40;;;;;;;4.70;4.20;;;22.30;59.40;;;;;;4139252;28;20493;-43
2023/02/10 00:35:03;;;;;;;5.55;4.80;;;22.20;59.60;;;;;;4134831;28;20409;-42
2023/02/10 00:37:25;;;;;;;5.13;4.63;;;22.20;60.00;;;;;;4135926;28;20041;-46
2023/02/10 00:39:48;;;;;;;5.32;4.82;;;22.10;60.00;;;;;;4134310;28;20070;-43
2023/02/10 00:42:10;;;;;;;5.25;4.75;;;22.10;60.00;;;;;;4137937;28;20487;-42
2023/02/10 00:44:32;;;;;;;5.32;4.82;;;22.10;60.10;;;;;;4137820;28;20493;-46
2023/02/10 00:46:55;;;;;;;5.68;5.07;;;22.00;59.60;;;;;;4137049;28;20383;-44
2023/02/10 00:49:17;;;;;;;5.32;4.63;;;22.00;60.10;;;;;;4133198;28;20454;-43
2023/02/10 00:51:40;;;;;;;5.97;5.15;;;21.90;60.20;;;;;;4139226;28;20478;-43
2023/02/10 00:54:02;;;;;;;5.30;4.80;;;21.90;60.40;;;;;;4137317;28;20050;-49
2023/02/10 00:56:25;;;;;;;5.50;5.00;;;21.80;60.40;;;;;;4139095;28;20458;-44
2023/02/10 00:58:48;;;;;;;5.38;4.88;;;21.80;60.60;;;;;;4135513;28;20045;-44
2023/02/10 01:01:11;;;;;;;5.60;4.93;;;21.80;60.80;;;;;;4134574;28;20100;-42
2023/02/10 01:03:34;;;;;;;5.43;4.93;;;21.70;60.90;;;;;;4138913;28;20041;-45
2023/02/10 01:05:56;;;;;;;5.40;4.70;;;21.70;61.00;;;;;;4139236;28;20132;-43
2023/02/10 01:08:19;;;;;;;4.95;4.43;;;21.70;61.00;;;;;;4132304;28;20485;-45
2023/02/10 01:10:42;;;;;;;5.82;5.25;;;21.60;61.00;;;;;;4139971;28;20151;-42
2023/02/10 01:13:06;;;;;;;5.68;5.05;;;21.60;61.40;;;;;;4136973;28;20049;-45
2023/02/10 01:15:29;;;;;;;5.95;4.97;;;21.60;61.60;;;;;;4142137;28;20049;-43
2023/02/10 01:17:53;;;;;;;5.10;4.60;;;21.60;61.50;;;;;;4135707;28;20120;-42
2023/02/10 01:20:15;;;;;;;5.70;5.15;;;21.50;61.50;;;;;;4137924;28;20473;-47
2023/02/10 01:22:38;;;;;;;5.78;5.18;;;21.50;61.80;;;;;;4137338;28;20038;-45
2023/02/10 01:25:00;;;;;;;6.60;5.93;;;21.50;61.50;;;;;;4138552;28;20034;-41
2023/02/10 01:27:23;;;;;;;6.93;6.32;;;21.40;61.20;;;;;;4136971;28;20117;-42
2023/02/10 01:29:45;;;;;;;7.88;6.07;;;21.40;61.10;;;;;;4138165;28;20131;-43
2023/02/10 01:32:07;;;;;;;6.00;5.40;;;21.40;61.30;;;;;;4138896;28;20049;-42
2023/02/10 01:34:30;;;;;;;6.47;5.80;;;21.30;61.40;;;;;;4138807;28;20059;-41
2023/02/10 01:36:52;;;;;;;6.03;5.43;;;21.30;61.50;;;;;;4135629;28;20476;-44
2023/02/10 01:39:16;;;;;;;6.40;5.80;;;21.30;61.70;;;;;;4136130;28;20782;-42
2023/02/10 01:41:38;;;;;;;6.43;5.50;;;21.30;61.80;;;;;;4139883;28;20120;-44
2023/02/10 01:44:26;;;;;;;5.53;4.70;;;21.20;61.70;;;;;;4137636;28;20053;-45
2023/02/10 01:46:49;;;;;;;4.95;4.45;;;21.20;62.00;;;;;;4133975;28;20045;-43
2023/02/10 01:49:18;;;;;;;5.30;4.80;;;21.20;61.80;;;;;;4137234;28;20132;-45
2023/02/10 01:51:53;;;;;;;5.28;4.68;;;21.20;61.90;;;;;;4138262;28;20037;-47
2023/02/10 01:54:17;;;;;;;;;;;21.20;62.10;;;;;;4138297;28;20501;-45
2023/02/10 01:56:41;;;;;;;5.80;4.25;;;21.20;62.10;;;;;;4139187;28;20332;-49
2023/02/10 01:59:04;;;;;;;4.75;4.25;;;21.20;62.00;;;;;;4133576;28;20076;-47
2023/02/10 02:01:26;;;;;;;5.70;4.68;;;21.10;62.00;;;;;;4135286;28;20045;-42
2023/02/10 02:03:49;;;;;;;7.97;4.45;;;21.20;62.40;;;;;;4137913;28;20033;-42
2023/02/10 02:06:11;;;;;;;5.63;4.35;;;21.10;62.60;;;;;;4131477;28;20042;-43
2023/02/10 02:08:34;;;;;;;5.30;4.00;;;21.10;62.50;;;;;;4137074;28;20038;-42
2023/02/10 02:11:27;;;;;;;5.47;4.15;;;21.10;62.50;;;;;;4139022;28;20056;-43
2023/02/10 02:14:14;;;;;;;5.50;4.40;;;21.00;63.00;;;;;;4136516;28;20045;-47
2023/02/10 02:17:00;;;;;;;17.27;4.35;;;21.00;63.50;;;;;;4150697;28;20112;-43
2023/02/10 02:19:47;;;;;;;4.93;4.43;;;21.00;63.50;;;;;;4134886;28;20077;-42
2023/02/10 02:22:33;;;;;;;5.63;4.10;;;21.00;63.10;;;;;;4139802;28;20050;-51
2023/02/10 02:25:21;;;;;;;4.93;4.30;;;21.00;63.30;;;;;;4136711;28;20045;-43
2023/02/10 02:28:01;;;;;;;4.35;3.85;;;21.00;62.90;;;;;;4136762;28;20045;-42
2023/02/10 02:30:47;;;;;;;4.55;3.90;;;21.10;62.70;;;;;;4137675;28;20053;-41
2023/02/10 02:33:28;;;;;;;4.65;3.75;;;21.10;62.30;;;;;;4138876;28;20038;-45
2023/02/10 02:36:29;;;;;;;3.90;3.50;;;21.10;62.10;;;;;;4134858;28;20054;-41
2023/02/10 02:38:51;;;;;;;4.75;3.50;;;21.10;62.00;;;;;;4133908;28;20457;-49
2023/02/10 02:41:22;;;;;;;5.03;3.92;;;21.10;62.20;;;;;;4136609;28;20037;-42
2023/02/10 02:43:44;;;;;;;5.00;3.67;;;21.00;62.20;;;;;;4137379;28;20221;-41
2023/02/10 02:46:44;;;;;;;4.20;3.80;;;21.00;63.00;;;;;;4137123;28;20473;-43
2023/02/10 02:49:10;;;;;;;3.95;3.55;;;21.00;63.40;;;;;;4138821;28;20049;-41
2023/02/10 02:51:41;;;;;;;3.75;3.30;;;20.90;63.30;;;;;;4133983;28;20038;-42
2023/02/10 02:54:30;;;;;;;4.22;3.50;;;20.90;63.20;;;;;;4134923;28;20045;-45
2023/02/10 02:57:17;;;;;;;4.47;4.07;;;20.90;63.20;;;;;;4135603;28;20042;-41
2023/02/10 02:59:46;;;;;;;4.43;3.45;;;21.00;63.00;;;;;;4135654;28;20540;-42
2023/02/10 03:02:12;;;;;;;6.25;3.28;;;20.90;62.60;;;;;;4134539;28;20030;-43
2023/02/10 03:04:36;;;;;;;5.13;3.53;;;20.90;62.60;;;;;;4139003;28;20065;-44
2023/02/10 03:06:59;;;;;;;4.50;3.55;;;20.90;61.80;;;;;;4136245;28;20054;-46
2023/02/10 03:09:22;;;;;;;5.72;3.90;;;20.90;62.20;;;;;;4137586;28;20377;-44
2023/02/10 03:11:44;;;;;;;4.88;3.55;;;20.90;62.40;;;;;;4131591;28;20046;-42
2023/02/10 03:14:06;;;;;;;4.00;3.47;;;20.90;62.50;;;;;;4137761;28;20077;-43
2023/02/10 03:16:29;;;;;;;4.70;3.50;;;20.90;62.50;;;;;;4139159;28;20040;-44
2023/02/10 03:18:51;;;;;;;3.35;3.03;;;20.90;62.50;;;;;;4139471;28;20108;-43
2023/02/10 03:21:14;;;;;;;3.90;3.50;;;20.90;62.60;;;;;;4136266;28;20038;-43
2023/02/10 03:23:36;;;;;;;4.22;3.30;;;20.90;62.40;;;;;;4130888;28;20038;-45
2023/02/10 03:25:59;;;;;;;3.50;3.20;;;20.90;62.40;;;;;;4134185;28;20398;-42
2023/02/10 03:28:22;;;;;;;4.20;3.43;;;20.90;62.40;;;;;;4131252;28;20057;-42
2023/02/10 03:30:50;;;;;;;4.85;3.60;;;20.80;62.80;;;;;;4133599;28;20622;-43
2023/02/10 03:33:12;;;;;;;3.75;3.45;;;20.80;62.50;;;;;;4135830;28;20040;-42
2023/02/10 03:35:39;;;;;;;3.90;3.50;;;20.80;62.70;;;;;;4127794;28;20100;-43
2023/02/10 03:38:01;;;;;;;3.72;3.33;;;20.90;62.50;;;;;;4134492;28;20444;-43
2023/02/10 03:40:24;;;;;;;3.75;3.10;;;20.80;62.50;;;;;;4135333;28;20077;-42
2023/02/10 03:42:47;;;;;;;3.65;3.25;;;20.80;62.50;;;;;;4134776;28;20037;-46
2023/02/10 03:45:09;;;;;;;4.40;4.00;;;20.80;62.50;;;;;;4137137;28;20417;-43
2023/02/10 03:47:32;;;;;;;5.55;5.05;;;20.90;62.70;;;;;;4131368;28;20052;-47
2023/02/10 03:49:54;;;;;;;5.10;4.70;;;20.90;62.80;;;;;;4139036;28;20038;-43
2023/02/10 03:52:16;;;;;;;5.25;4.82;;;20.90;63.00;;;;;;4128448;28;20557;-47
2023/02/10 03:54:39;;;;;;;5.10;4.57;;;20.90;63.00;;;;;;4134167;28;20046;-42
2023/02/10 03:57:01;;;;;;;5.32;4.82;;;20.90;63.20;;;;;;4130094;28;20108;-44
2023/02/10 03:59:25;;;;;;;4.60;4.13;;;20.90;63.10;;;;;;4138018;28;20048;-42
2023/02/10 04:01:47;;;;;;;4.97;4.47;;;20.90;63.20;;;;;;4137611;28;20487;-43
2023/02/10 04:04:10;;;;;;;4.88;4.35;;;20.90;63.20;;;;;;4137905;28;20132;-43
2023/02/10 04:06:32;;;;;;;4.47;4.07;;;20.90;63.30;;;;;;4138279;28;20072;-48
2023/02/10 04:08:54;;;;;;;4.47;4.07;;;20.90;63.50;;;;;;4137289;28;20049;-42
2023/02/10 04:11:17;;;;;;;5.03;4.47;;;20.90;63.30;;;;;;4132025;28;20401;-47
2023/02/10 04:13:40;;;;;;;5.43;4.10;;;20.90;63.40;;;;;;4139378;28;20540;-42
2023/02/10 04:16:06;;;;;;;3.93;3.53;;;21.00;63.60;;;;;;4136007;28;20034;-43
2023/02/10 04:18:28;;;;;;;5.13;4.40;;;21.00;63.60;;;;;;4129007;28;20105;-43
2023/02/10 04:20:51;;;;;;;4.10;3.70;;;21.00;63.40;;;;;;4132097;28;20116;-42
2023/02/10 04:23:14;;;;;;;4.35;3.75;;;21.00;63.40;;;;;;4132146;28;20073;-41
2023/02/10 04:25:36;;;;;;;4.45;4.05;;;21.00;63.30;;;;;;4133347;28;20497;-43
2023/02/10 04:27:58;;;;;;;4.30;3.90;;;21.00;63.40;;;;;;4138953;28;20065;-40
2023/02/10 04:30:21;;;;;;;4.68;3.97;;;21.00;63.60;;;;;;4138326;28;20070;-42
2023/02/10 04:32:43;;;;;;;4.85;3.90;;;21.10;63.70;;;;;;4131223;28;20054;-41
2023/02/10 04:35:06;;;;;;;6.45;4.75;;;21.10;63.50;;;;;;4137187;28;20050;-42
2023/02/10 04:37:28;;;;;;;4.75;3.63;;;21.20;63.70;;;;;;4137391;28;20049;-44
2023/02/10 04:39:51;;;;;;;4.70;3.88;;;21.20;63.50;;;;;;4137535;28;20050;-42
2023/02/10 04:42:13;;;;;;;4.75;3.90;;;21.20;63.40;;;;;;4138051;28;20037;-45
2023/02/10 04:44:35;;;;;;;4.22;3.83;;;21.30;63.30;;;;;;4132781;28;20041;-41
2023/02/10 04:46:58;;;;;;;4.22;3.70;;;21.30;63.20;;;;;;4136176;28;20128;-44
2023/02/10 04:49:20;;;;;;;4.45;4.00;;;21.30;63.10;;;;;;4134722;28;20045;-44
2023/02/10 04:51:44;;;;;;;4.45;3.65;;;21.40;63.10;;;;;;4129400;28;20030;-47
2023/02/10 04:54:06;;;;;;;4.72;3.97;;;21.40;63.10;;;;;;4138134;28;20054;-45
2023/02/10 04:56:29;;;;;;;4.20;3.53;;;21.40;63.00;;;;;;4135427;28;20128;-45
2023/02/10 04:58:52;;;;;;;4.55;3.78;;;21.40;63.00;;;;;;4133424;28;20053;-43
2023/02/10 05:01:14;;;;;;;4.30;3.90;;;21.50;62.90;;;;;;4136919;28;20061;-40
2023/02/10 05:03:37;;;;;;;5.00;3.75;;;21.50;62.90;;;;;;4133361;28;20038;-45
2023/02/10 05:06:05;;;;;;;18.00;5.00;;;21.50;63.00;;;;;;4131088;28;20045;-43
2023/02/10 05:08:28;;;;;;;18.25;5.32;;;21.60;63.10;;;;;;4133523;28;20126;-47
2023/02/10 05:10:51;;;;;;;13.45;4.80;;;21.70;63.00;;;;;;4127556;28;20093;-45
2023/02/10 05:13:14;;;;;;;15.75;4.75;;;21.70;63.00;;;;;;4135728;28;20042;-49
2023/02/10 05:15:36;;;;;;;5.53;3.92;;;21.80;63.00;;;;;;4131189;28;20117;-41
2023/02/10 05:17:59;;;;;;;8.43;4.45;;;21.80;62.90;;;;;;4129521;28;20038;-43
2023/02/10 05:20:21;;;;;;;7.25;3.95;;;21.90;63.10;;;;;;4129556;28;20198;-44
2023/02/10 05:22:44;;;;;;;7.82;4.40;;;21.90;63.10;;;;;;4138134;28;20029;-42
2023/02/10 05:25:07;;;;;;;5.22;3.63;;;21.90;62.70;;;;;;4134165;28;20045;-42
2023/02/10 05:27:30;;;;;;;5.00;4.20;;;22.00;62.60;;;;;;4136777;28;20805;-42
2023/02/10 05:29:52;;;;;;;4.30;3.90;;;22.00;62.40;;;;;;4132358;28;20288;-42
2023/02/10 05:32:14;;;;;;;4.35;3.92;;;22.00;62.20;;;;;;4135247;28;20503;-43
2023/02/10 05:34:37;;;;;;;4.55;4.00;;;22.00;62.30;;;;;;4138840;28;20143;-49
2023/02/10 05:36:59;;;;;;;5.03;4.25;;;22.10;62.30;;;;;;4136928;28;20104;-45
2023/02/10 05:39:25;;;;;;;4.40;4.00;;;22.10;62.30;;;;;;4140509;28;20467;-47
2023/02/10 05:41:47;;;;;;;4.22;3.83;;;22.10;62.00;;;;;;4145988;28;20457;-47
2023/02/10 05:44:10;;;;;;;4.32;3.92;;;22.20;61.80;;;;;;4130419;28;20026;-46
2023/02/10 05:46:33;;;;;;;4.50;4.10;;;22.10;61.70;;;;;;4132881;28;20058;-50
2023/02/10 05:48:55;;;;;;;4.10;3.70;;;22.10;61.60;;;;;;4131742;28;20102;-47
2023/02/10 05:51:19;;;;;;;4.10;3.70;;;22.20;61.50;;;;;;4132217;28;20521;-50
2023/02/10 05:53:41;;;;;;;;;;;22.10;61.50;;;;;;4132822;28;20537;-46
2023/02/10 05:56:03;;;;;;;4.78;3.50;;;22.10;61.50;;;;;;4134014;28;19913;-42
2023/02/10 05:58:27;;;;;;;7.65;3.83;;;22.00;61.50;;;;;;4129412;28;20074;-44
2023/02/10 06:00:49;;;;;;;;;;;22.00;61.40;;;;;;4139577;28;20040;-42
2023/02/10 06:03:11;;;;;;;4.30;3.90;;;22.00;61.30;;;;;;4134530;28;20285;-45
2023/02/10 06:05:34;;;;;;;7.30;4.55;;;22.00;61.40;;;;;;4136831;28;20034;-48
2023/02/10 06:07:56;;;;;;;7.60;4.93;;;22.00;61.20;;;;;;4132688;28;20042;-47
2023/02/10 06:10:19;;;;;;;5.88;4.38;;;22.10;61.00;;;;;;4133907;28;20124;-49
2023/02/10 06:12:41;;;;;;;4.80;4.30;;;22.20;61.00;;;;;;4133072;28;20145;-47
2023/02/10 06:15:04;;;;;;;4.97;4.47;;;22.20;60.80;;;;;;4137759;28;20065;-45
2023/02/10 06:17:27;;;;;;;5.32;4.38;;;22.20;60.70;;;;;;4136771;28;20049;-42
2023/02/10 06:19:50;;;;;;;4.70;4.20;;;22.30;60.50;;;;;;4140095;28;20506;-42
2023/02/10 06:22:12;;;;;;;4.75;4.05;;;22.30;60.30;;;;;;4139686;28;20038;-44
2023/02/10 06:24:35;;;;;;;4.25;3.85;;;22.40;60.10;;;;;;4129815;28;20379;-43
2023/02/10 06:26:57;;;;;;;4.43;3.95;;;22.40;60.00;;;;;;4136250;28;20034;-44
2023/02/10 06:29:19;;;;;;;5.63;3.83;;;22.40;59.80;;;;;;4130508;28;20057;-43
2023/02/10 06:31:43;;;;;;;4.13;3.53;;;22.50;59.70;;;;;;4141058;28;20053;-45
2023/02/10 06:34:07;;;;;;;3.95;3.55;;;22.50;59.60;;;;;;4134589;28;20519;-43
2023/02/10 06:36:29;;;;;;;4.93;3.72;;;22.50;59.60;;;;;;4132190;28;20066;-42
2023/02/10 06:38:52;;;;;;;3.95;3.33;;;22.60;59.50;;;;;;4135251;28;20045;-43
2023/02/10 06:41:15;;;;;;;4.25;3.85;;;22.60;59.70;;;;;;4128541;28;20121;-42
2023/02/10 06:43:37;;;;;;;4.72;3.50;;;22.60;59.70;;;;;;4135587;28;20116;-46
2023/02/10 06:45:59;;;;;;;3.88;3.20;;;22.70;59.60;;;;;;4127488;28;20064;-43
2023/02/10 06:48:22;;;;;;;5.28;3.20;;;22.70;59.60;;;;;;4127555;28;20252;-44
2023/02/10 06:50:44;;;;;;;4.38;3.30;;;22.80;59.30;;;;;;4130772;28;20435;-49
2023/02/10 06:53:07;;;;;;;4.00;3.20;;;22.80;59.30;;;;;;4129059;28;20469;-49
2023/02/10 06:55:29;;;;;;;3.47;3.17;;;22.90;59.20;;;;;;4130887;28;20050;-43
2023/02/10 06:57:52;;;;;;;3.65;3.13;;;22.90;59.20;;;;;;4126220;28;20053;-42
2023/02/10 07:00:15;;;;;;;5.03;3.10;;;22.90;59.00;;;;;;4128882;28;20100;-42
2023/02/10 07:02:38;;;;;;;5.25;3.30;;;22.90;58.80;;;;;;4129692;28;20080;-42
2023/02/10 07:05:02;;;;;;;4.32;3.15;;;22.90;59.40;;;;;;4126363;28;20505;-47
2023/02/10 07:07:25;;;;;;;4.03;3.15;;;23.00;58.60;;;;;;4132958;28;20039;-47
2023/02/10 07:09:48;;;;;;;3.20;2.60;;;23.00;58.50;;;;;;4133770;28;20077;-44
2023/02/10 07:12:10;;;;;;;3.22;2.92;;;23.00;58.40;;;;;;4132861;28;20449;-49
2023/02/10 07:14:32;;;;;;;3.25;2.70;;;23.00;58.30;;;;;;4132768;28;20046;-49
2023/02/10 07:16:55;;;;;;;7.53;3.08;;;22.90;58.40;;;;;;4134336;28;20084;-49
2023/02/10 07:19:17;;;;;;;3.30;3.00;;;22.90;58.30;;;;;;4137862;28;20042;-51
2023/02/10 07:21:40;;;;;;;4.82;3.08;;;22.90;58.40;;;;;;4127604;28;20112;-48
2023/02/10 07:24:02;;;;;;;4.32;2.88;;;22.80;58.20;;;;;;4132650;28;20424;-47
2023/02/10 07:26:25;;;;;;;3.22;2.60;;;22.80;58.20;;;;;;4132172;28;20034;-47
2023/02/10 07:28:47;;;;;;;4.35;2.70;;;22.80;58.20;;;;;;4133342;28;20116;-51
2023/02/10 07:31:09;;;;;;;3.25;2.60;;;22.70;58.90;;;;;;4136228;28;20042;-48
2023/02/10 07:33:32;;;;;;;3.25;2.72;;;22.70;58.10;;;;;;4131115;28;20593;-49
2023/02/10 07:35:54;;;;;;;5.30;2.80;;;22.60;58.10;;;;;;4134243;28;20033;-43
2023/02/10 07:38:17;;;;;;;2.72;2.50;;;22.60;58.20;;;;;;4128782;28;20417;-42
2023/02/10 07:40:39;;;;;;;3.10;2.53;;;22.50;58.20;;;;;;4129203;28;20033;-46
2023/02/10 07:43:02;;;;;;;3.47;2.70;;;22.40;58.70;;;;;;4124159;28;20046;-45
2023/02/10 07:45:26;;;;;;;3.53;2.58;;;22.50;60.40;;;;;;4045493;28;2587462;-43
2023/02/10 07:47:48;;;;;;;3.47;2.72;;;22.70;61.20;;;;;;4132874;28;20058;-46
2023/02/10 07:50:11;;;;;;;3.63;2.50;;;22.90;61.70;;;;;;4130803;28;20406;-47
2023/02/10 07:52:33;;;;;;;5.30;2.22;;;23.20;62.30;;;;;;4129407;28;20066;-52
2023/02/10 07:54:56;;;;;;;4.55;2.33;;;23.40;62.20;;;;;;4122824;28;20734;-50
2023/02/10 07:57:18;;;;;;;8.23;2.37;;;23.60;62.20;;;;;;4129354;28;20273;-45
2023/02/10 07:59:41;;;;;;;6.07;2.45;;;23.70;62.20;;;;;;4131765;28;20096;-51
2023/02/10 08:02:05;;;;;;;4.32;2.15;;;23.90;62.70;;;;;;4129314;28;20067;-42
2023/02/10 08:04:27;;;;;;;7.00;2.35;;;24.10;62.80;;;;;;4127718;28;20037;-50
2023/02/10 08:06:49;;;;;;;2.67;1.98;;;24.20;62.80;;;;;;4131105;28;20038;-42
2023/02/10 08:09:12;;;;;;;3.58;2.40;;;24.40;62.70;;;;;;4125661;28;20239;-42
2023/02/10 08:11:34;;;;;;;3.72;1.92;;;24.50;62.60;;;;;;4127316;28;20407;-41
2023/02/10 08:14:00;;;;;;;3.13;1.70;;;24.60;62.70;;;;;;4132441;28;20042;-42
2023/02/10 08:16:22;;;;;;;5.18;1.90;;;24.70;62.70;;;;;;4130174;28;20049;-43
2023/02/10 08:18:45;;;;;;;3.58;2.78;;;24.70;62.80;;;;;;4129562;28;20038;-42
2023/02/10 08:21:08;;;;;;;5.28;2.25;;;24.80;64.20;;;;;;4127345;28;20285;-45
2023/02/10 08:23:30;;;;;;;4.47;2.13;;;25.00;64.20;;;;;;4133755;28;20498;-44
2023/02/10 08:25:53;;;;;;;12.48;2.92;;;25.10;64.30;;;;;;4124606;28;20034;-43
2023/02/10 08:28:15;;;;;;;7.15;2.42;;;25.10;64.20;;;;;;4129479;28;20070;-46
2023/02/10 08:30:38;;;;;;;2.90;2.40;;;25.20;64.20;;;;;;4134382;28;20482;-46
2023/02/10 08:33:00;;;;;;;3.15;2.13;;;25.30;64.60;;;;;;4130154;28;20046;-44
2023/02/10 08:35:22;;;;;;;7.78;3.17;;;25.40;64.50;;;;;;4131491;28;20085;-46
2023/02/10 08:37:45;;;;;;;8.25;2.38;;;25.40;64.50;;;;;;4131486;28;20030;-44
2023/02/10 08:40:08;;;;;;;5.82;2.63;;;25.50;64.80;;;;;;4133193;28;20494;-44
2023/02/10 08:42:30;;;;;;;5.70;2.67;;;25.60;64.70;;;;;;4131976;28;20393;-45
2023/02/10 08:44:52;;;;;;;4.68;2.47;;;25.70;65.00;;;;;;4134885;28;20124;-46
2023/02/10 08:47:15;;;;;;;4.43;2.10;;;25.70;65.00;;;;;;4136212;28;20046;-46
2023/02/10 08:49:38;;;;;;;7.43;2.55;;;25.70;65.20;;;;;;4136871;28;20038;-45
2023/02/10 08:52:00;;;;;;;4.05;2.35;;;25.80;65.10;;;;;;4128868;28;20566;-48
2023/02/10 08:54:23;;;;;;;5.28;2.20;;;25.80;65.20;;;;;;4131282;28;20046;-44
2023/02/10 08:56:45;;;;;;;3.63;2.03;;;25.90;65.30;;;;;;4131865;28;20096;-45
2023/02/10 08:59:08;;;;;;;8.85;3.05;;;25.90;65.30;;;;;;4130475;28;20489;-43
2023/02/10 09:01:30;;;;;;;16.80;3.78;;;25.90;65.50;;;;;;4131172;28;20038;-42
2023/02/10 09:03:54;;;;;;;7.88;2.70;;;26.00;65.20;;;;;;4127618;28;20122;-45
2023/02/10 09:06:23;;;;;;;7.72;2.22;;;26.00;65.30;;;;;;4132761;28;20042;-43
2023/02/10 09:08:47;;;;;;;9.30;2.95;;;26.10;65.10;;;;;;4129657;28;20042;-44
2023/02/10 09:11:09;;;;;;;7.40;2.40;;;26.10;65.30;;;;;;4133478;28;20088;-45
2023/02/10 09:13:32;;;;;;;7.25;2.53;;;26.10;65.20;;;;;;4132932;28;20045;-47
2023/02/10 09:15:56;;;;;;;7.20;2.17;;;26.10;65.20;;;;;;4133540;28;20050;-43
2023/02/10 09:18:18;;;;;;;;;;;26.10;65.20;;;;;;4135914;28;20042;-46
2023/02/10 09:20:40;;;;;;;8.13;2.90;;;26.20;65.60;;;;;;4132957;28;20069;-47
2023/02/10 09:23:03;;;;;;;12.35;2.28;;;26.20;65.70;;;;;;4132749;28;20046;-50
2023/02/10 09:25:26;;;;;;;6.37;2.40;;;26.20;65.70;;;;;;4126223;28;20046;-46
2023/02/10 09:27:48;;;;;;;5.00;2.20;;;26.20;66.00;;;;;;4129848;28;20295;-48
2023/02/10 09:30:11;;;;;;;5.60;2.08;;;26.30;65.90;;;;;;4135358;28;20050;-42
2023/02/10 09:32:33;;;;;;;11.23;2.13;;;26.40;65.90;;;;;;4132096;28;20490;-46
2023/02/10 09:34:56;;;;;;;6.25;2.17;;;26.40;65.70;;;;;;4134490;28;20042;-42
2023/02/10 09:37:18;;;;;;;5.47;1.63;;;26.40;65.70;;;;;;4135564;28;20080;-48
2023/02/10 09:39:41;;;;;;;4.55;2.03;;;26.40;65.70;;;;;;4128161;28;20046;-44
2023/02/10 09:42:09;;;;;;;2.85;1.95;;;26.50;65.70;;;;;;4134405;28;20076;-46
2023/02/10 09:44:36;;;;;;;9.27;2.85;;;26.50;65.70;;;;;;4126824;28;20461;-51
2023/02/10 09:47:22;;;;;;;5.00;2.25;;;26.50;66.10;;;;;;4132670;28;20053;-43
2023/02/10 09:49:53;;;;;;;6.43;2.10;;;26.60;66.30;;;;;;4127231;28;20698;-41
2023/02/10 09:52:46;;;;;;;5.43;2.35;;;26.60;66.70;;;;;;4132224;28;20034;-43
2023/02/10 09:55:23;;;;;;;7.25;2.42;;;26.60;66.70;;;;;;4128318;28;20085;-49
2023/02/10 09:58:11;;;;;;;5.07;2.20;;;26.60;66.70;;;;;;4132483;28;20196;-46
2023/02/10 10:00:41;;;;;;;18.30;2.58;;;26.60;66.60;;;;;;4133000;28;20447;-46
2023/02/10 10:03:13;;;;;;;5.78;2.30;;;26.70;67.20;;;;;;4133519;28;20378;-42
2023/02/10 10:05:53;;;;;;;8.82;2.22;;;26.70;66.50;;;;;;4137179;28;20133;-43
2023/02/10 10:08:34;;;;;;;5.68;2.05;;;26.70;66.50;;;;;;4137806;28;20049;-42
2023/02/10 10:11:05;;;;;;;3.97;2.10;;;26.80;66.60;;;;;;4140423;28;20061;-43
2023/02/10 10:13:29;;;;;;;4.63;2.30;;;26.70;66.50;;;;;;4139512;28;20383;-48
2023/02/10 10:16:06;;;;;;;5.32;2.40;;;26.80;66.60;;;;;;4136547;28;20046;-49
2023/02/10 10:19:06;;;;;;;4.65;2.20;;;26.80;66.50;;;;;;4138006;28;20033;-45
2023/02/10 10:22:00;;;;;;;6.57;2.15;;;26.80;66.50;;;;;;4132591;28;20076;-46
2023/02/10 10:24:46;;;;;;;6.20;2.00;;;26.80;66.50;;;;;;4139327;28;20041;-46
2023/02/10 10:27:30;;;;;;;4.47;2.13;;;26.90;66.50;;;;;;4139302;28;20042;-52
2023/02/10 10:29:56;;;;;;;4.85;2.40;;;26.90;66.60;;;;;;4136630;28;20093;-50
2023/02/10 10:32:55;;;;;;;4.32;2.30;;;26.90;66.60;;;;;;4138752;28;20160;-48
2023/02/10 10:35:46;;;;;;;5.03;2.22;;;26.90;66.60;;;;;;4131409;28;20484;-47
2023/02/10 10:38:25;;;;;;;3.92;2.05;;;26.90;66.60;;;;;;4135595;28;20100;-49
2023/02/10 10:40:50;;;;;;;5.95;1.88;;;26.90;66.60;;;;;;4128741;28;20108;-49
2023/02/10 10:43:22;;;;;;;5.20;2.30;;;27.00;67.30;;;;;;4137398;28;20497;-42
2023/02/10 10:45:49;;;;;;;3.00;1.65;;;27.00;66.60;;;;;;4139476;28;20123;-43
2023/02/10 10:48:32;;;;;;;2.85;1.80;;;27.00;66.60;;;;;;4132434;28;20046;-44
2023/02/10 10:51:04;;;;;;;8.68;2.40;;;27.10;66.60;;;;;;4137637;28;20072;-51
2023/02/10 10:53:52;;;;;;;7.25;2.35;;;27.10;66.40;;;;;;4129707;28;20051;-45
2023/02/10 10:56:47;;;;;;;7.07;1.80;;;27.00;66.00;;;;;;4135586;28;20107;-46
2023/02/10 10:59:20;;;;;;;21.55;2.38;;;27.00;66.10;;;;;;4138237;28;20053;-43
2023/02/10 11:01:46;;;;;;;3.03;1.70;;;27.00;66.10;;;;;;4132511;28;20034;-44
2023/02/10 11:04:23;;;;;;;4.20;1.80;;;27.00;66.20;;;;;;4138370;28;20283;-49
2023/02/10 11:06:59;;;;;;;3.47;2.10;;;27.00;66.20;;;;;;4137797;28;20040;-47
2023/02/10 11:09:32;;;;;;;3.30;1.85;;;27.00;66.20;;;;;;4124630;28;20159;-47
2023/02/10 11:12:15;;;;;;;3.85;1.55;;;27.00;66.30;;;;;;4135738;28;20176;-44
2023/02/10 11:14:44;;;;;;;3.90;2.08;;;27.10;66.40;;;;;;4134013;28;20077;-45
2023/02/10 11:17:29;;;;;;;3.88;1.38;;;27.10;66.40;;;;;;4136775;28;20134;-48
2023/02/10 11:20:01;;;;;;;2.10;1.40;;;27.10;66.40;;;;;;4139519;28;20387;-44
2023/02/10 11:22:25;;;;;;;5.80;1.90;;;27.20;66.40;;;;;;4133959;28;20042;-45
2023/02/10 11:24:56;;;;;;;2.08;1.30;;;27.20;66.30;;;;;;4130405;28;20386;-43
2023/02/10 11:27:19;;;;;;;4.05;1.80;;;27.20;66.30;;;;;;4135479;28;20038;-45
2023/02/10 11:29:50;;;;;;;5.20;1.95;;;27.30;66.20;;;;;;4131104;28;20502;-44
2023/02/10 11:32:35;;;;;;;3.80;1.70;;;27.30;66.20;;;;;;4137384;28;20036;-46
2023/02/10 11:34:59;;;;;;;;;;;27.30;66.10;;;;;;4137123;28;20045;-43
2023/02/10 11:37:28;;;;;;;3.35;1.70;;;27.30;66.10;;;;;;4131700;28;20441;-44
2023/02/10 11:39:53;;;;;;;2.42;1.58;;;27.40;66.10;;;;;;4130040;28;20492;-42
2023/02/10 11:42:22;;;;;;;2.83;1.70;;;27.40;66.10;;;;;;4137968;28;20136;-45
2023/02/10 11:45:15;;;;;;;3.67;1.90;;;27.40;66.00;;;;;;4136662;28;20537;-43
2023/02/10 11:47:40;;;;;;;2.40;1.17;;;27.40;65.90;;;;;;4127210;28;20124;-46
2023/02/10 11:50:18;;;;;;;3.42;1.75;;;27.40;66.40;;;;;;4134140;28;20042;-48
2023/02/10 11:52:40;;;;;;;4.55;1.63;;;27.40;65.70;;;;;;4134623;28;20117;-46
2023/02/10 11:55:03;;;;;;;3.65;1.90;;;27.40;65.60;;;;;;4139071;28;20053;-49
2023/02/10 12:00:28;;;;;;;3.60;1.88;;;27.50;65.70;;;;;;4133913;28;20060;-43
2023/02/10 12:03:15;;;;;;;3.42;1.65;;;27.50;65.60;;;;;;4152679;28;20075;-45
2023/02/10 12:06:08;;;;;;;4.70;1.80;;;27.50;65.60;;;;;;4139710;28;20046;-48
2023/02/10 12:08:30;;;;;;;4.10;2.28;;;27.50;65.60;;;;;;4130982;28;20073;-50
2023/02/10 12:10:57;;;;;;;4.43;2.20;;;27.50;65.40;;;;;;4139365;28;20104;-46
2023/02/10 12:13:28;;;;;;;3.45;2.08;;;27.50;65.50;;;;;;4127776;28;20052;-47
2023/02/10 12:16:14;;;;;;;5.15;2.30;;;27.50;65.50;;;;;;4131981;28;20058;-50
2023/02/10 12:18:48;;;;;;;4.65;2.17;;;27.50;65.50;;;;;;4125286;28;20037;-46
2023/02/10 12:21:32;;;;;;;14.90;2.35;;;27.60;65.70;;;;;;4138378;28;20050;-45
2023/02/10 12:24:29;;;;;;;6.30;2.10;;;27.60;65.70;;;;;;4136845;28;20073;-43
2023/02/10 12:27:21;;;;;;;6.78;2.00;;;27.60;66.30;;;;;;4136519;28;20169;-45
2023/02/10 12:30:00;;;;;;;4.25;2.05;;;27.60;65.70;;;;;;4136777;28;20062;-46
2023/02/10 12:32:30;;;;;;;8.30;1.90;;;27.60;65.80;;;;;;4130649;28;20059;-43
2023/02/10 12:34:55;;;;;;;4.22;1.95;;;27.60;65.70;;;;;;4147272;28;20046;-49
2023/02/10 12:37:36;;;;;;;3.45;1.80;;;27.60;65.70;;;;;;4137575;28;20034;-45
2023/02/10 12:40:35;;;;;;;2.53;1.50;;;27.60;65.70;;;;;;4138740;28;20038;-48
2023/02/10 12:43:39;;;;;;;2.33;1.60;;;27.60;65.70;;;;;;4137787;28;20101;-44
2023/02/10 12:46:07;;;;;;;2.92;1.55;;;27.60;65.80;;;;;;4059228;29;20043;-48
2023/02/10 12:48:37;;;;;;;2.72;1.38;;;27.60;65.80;;;;;;4136882;28;20052;-42
2023/02/10 12:51:31;;;;;;;2.60;1.50;;;27.60;65.80;;;;;;4136845;28;20042;-46